Time;durP1;ratioP1;P1;durP2;ratioP2;P2;SDS_P1;SDS_P2;PMS_P1;PMS_P2;Temp;Humidity;BMP_temperature;BMP_pressure;BME280_temperature;BME280_humidity;BME280_pressure;Samples;Min_cycle;Max_cycle;Signal;HPM_P1;HPM_P2
2023/08/09 00:00:57;;;;;;;9.83;4.73;;;;;;;15.67;79.57;100630.67;125605;1099;104188;-80
2023/08/09 00:03:39;;;;;;;10.37;4.73;;;;;;;15.65;80.67;100628.00;125152;1099;102460;-79
2023/08/09 00:06:10;;;;;;;12.50;4.83;;;;;;;15.62;80.95;100625.31;125494;1099;104192;-79
2023/08/09 00:08:41;;;;;;;10.60;5.13;;;;;;;15.59;81.13;100633.19;125429;1099;101854;-80
2023/08/09 00:11:12;;;;;;;9.40;4.73;;;;;;;15.55;80.92;100628.70;125568;1099;104191;-79
2023/08/09 00:13:44;;;;;;;10.43;5.17;;;;;;;15.53;80.92;100627.79;125409;1099;101868;-79
2023/08/09 00:16:15;;;;;;;11.17;5.10;;;;;;;15.51;81.00;100624.23;125571;1099;104237;-79
2023/08/09 00:18:47;;;;;;;7.73;4.93;;;;;;;15.49;80.71;100626.86;125450;1099;104172;-79
2023/08/09 00:21:18;;;;;;;9.50;4.80;;;;;;;15.47;80.75;100631.20;125474;1099;104192;-78
2023/08/09 00:23:49;;;;;;;13.73;5.30;;;;;;;15.45;81.91;100633.82;125483;1099;101871;-78
2023/08/09 00:26:20;;;;;;;10.70;5.00;;;;;;;15.43;81.18;100635.56;124972;1099;102089;-79
2023/08/09 00:28:52;;;;;;;13.47;5.40;;;;;;;15.41;80.95;100636.38;125473;1099;104182;-78
2023/08/09 00:31:24;;;;;;;11.50;5.27;;;;;;;15.40;81.26;100631.98;125408;1099;104208;-79
2023/08/09 00:33:56;;;;;;;11.07;4.90;;;;;;;15.39;82.28;100635.48;125376;1099;102019;-80
2023/08/09 00:36:27;;;;;;;13.77;5.67;;;;;;;15.38;82.41;100644.26;125474;1099;104214;-80
2023/08/09 00:38:59;;;;;;;13.03;5.63;;;;;;;15.35;82.09;100642.47;125604;1099;101788;-79
2023/08/09 00:41:30;;;;;;;20.03;5.60;;;;;;;15.35;81.36;100647.76;125569;1099;104166;-79
2023/08/09 00:44:02;;;;;;;10.10;5.00;;;;;;;15.37;82.36;100648.67;124851;1099;104364;-79
2023/08/09 00:46:34;;;;;;;9.60;4.73;;;;;;;15.36;81.74;100657.45;125480;1099;101853;-79
2023/08/09 00:49:05;;;;;;;13.80;5.47;;;;;;;15.35;82.10;100665.35;124866;1099;102191;-79
2023/08/09 00:51:37;;;;;;;12.00;5.50;;;;;;;15.32;82.13;100666.20;125466;1099;101763;-79
2023/08/09 00:54:08;;;;;;;10.77;5.17;;;;;;;15.30;83.56;100667.03;125532;1099;102194;-81
2023/08/09 00:56:41;;;;;;;10.47;5.10;;;;;;;15.26;83.29;100661.69;125480;1099;102531;-79
2023/08/09 00:59:13;;;;;;;14.37;4.97;;;;;;;15.23;83.52;100658.98;125475;1099;104248;-80
2023/08/09 01:01:44;;;;;;;11.13;5.33;;;;;;;15.21;82.89;100663.36;125470;1099;102109;-81
2023/08/09 01:04:16;;;;;;;9.53;4.87;;;;;;;15.20;83.71;100668.61;125508;1099;104375;-79
2023/08/09 01:06:55;;;;;;;10.70;5.40;;;;;;;15.18;84.05;100667.70;124949;1099;104291;-79
2023/08/09 01:09:34;;;;;;;12.47;5.20;;;;;;;15.16;83.79;100665.03;125507;1098;102274;-80
2023/08/09 01:12:08;;;;;;;7.93;4.93;;;;;;;15.13;84.30;100679.91;125504;1099;104365;-79
2023/08/09 01:14:42;;;;;;;11.60;5.73;;;;;;;15.07;83.76;100681.58;125234;1099;104160;-80
2023/08/09 01:17:16;;;;;;;10.93;5.60;;;;;;;15.03;84.45;100681.48;125472;1098;104195;-79
2023/08/09 01:19:50;;;;;;;11.13;5.33;;;;;;;14.97;85.21;100676.08;125400;1099;104153;-80
2023/08/09 01:22:24;;;;;;;11.43;5.50;;;;;;;14.92;84.91;100686.55;125446;1098;102131;-79
2023/08/09 01:24:57;;;;;;;11.07;5.47;;;;;;;14.90;84.90;100690.92;125520;1099;102198;-80
2023/08/09 01:27:29;;;;;;;12.85;5.67;;;;;;;14.86;85.15;100679.38;125558;1099;102355;-80
2023/08/09 01:30:01;;;;;;;13.47;5.67;;;;;;;14.86;84.54;100683.78;125414;1099;104175;-81
2023/08/09 01:32:32;;;;;;;12.17;5.70;;;;;;;14.85;84.60;100681.98;125570;1099;101887;-80
2023/08/09 01:35:04;;;;;;;10.90;5.53;;;;;;;14.83;85.16;100681.07;125065;1099;104197;-80
2023/08/09 01:37:44;;;;;;;13.53;5.57;;;;;;;14.78;85.47;100675.69;125436;1099;104204;-81
2023/08/09 01:40:18;;;;;;;9.80;5.47;;;;;;;14.76;85.37;100679.14;125640;1099;101923;-81
2023/08/09 01:42:52;;;;;;;9.47;5.20;;;;;;;14.72;84.84;100679.11;125615;1099;102399;-81
2023/08/09 01:45:24;;;;;;;10.15;5.40;;;;;;;14.70;85.43;100674.64;125609;1098;104169;-81
2023/08/09 01:47:55;;;;;;;10.17;5.80;;;;;;;14.69;84.78;100683.41;125635;1099;102146;-81
2023/08/09 01:50:28;;;;;;;12.03;5.47;;;;;;;14.66;84.32;100675.42;125500;1099;104057;-81
2023/08/09 01:52:59;;;;;;;12.67;5.60;;;;;;;14.66;84.53;100681.62;125069;1099;102640;-81
2023/08/09 01:55:31;;;;;;;11.77;5.73;;;;;;;14.63;84.45;100681.55;125045;1099;102112;-80
2023/08/09 01:58:03;;;;;;;11.23;5.57;;;;;;;14.63;85.71;100684.19;124915;1099;104325;-80
2023/08/09 02:00:35;;;;;;;15.17;6.13;;;;;;;14.60;84.73;100681.48;124948;1099;101909;-81
2023/08/09 02:03:06;;;;;;;14.13;5.83;;;;;;;14.60;85.27;100683.17;125489;1099;104171;-81
2023/08/09 02:05:38;;;;;;;12.10;5.67;;;;;;;14.56;84.76;100687.51;125584;1099;104242;-81
2023/08/09 02:08:09;;;;;;;12.50;5.47;;;;;;;14.55;85.11;100698.91;124997;1099;102029;-81
2023/08/09 02:10:41;;;;;;;10.90;5.70;;;;;;;14.52;85.94;100696.20;125501;1097;102052;-80
2023/08/09 02:13:13;;;;;;;12.70;5.73;;;;;;;14.49;85.49;100693.49;125528;1099;101946;-82
2023/08/09 02:15:44;;;;;;;15.17;6.20;;;;;;;14.47;85.83;100696.09;125585;1098;104355;-82
2023/08/09 02:18:20;;;;;;;9.93;5.30;;;;;;;14.45;86.17;100692.55;125649;1099;104165;-81
2023/08/09 02:20:52;;;;;;;12.87;5.87;;;;;;;14.44;86.55;100688.11;125745;1098;102282;-81
2023/08/09 02:23:23;;;;;;;10.95;5.65;;;;;;;14.43;86.37;100696.91;125563;1098;104233;-82
2023/08/09 02:25:55;;;;;;;12.20;5.90;;;;;;;14.43;86.21;100696.91;125587;1099;104181;-81
2023/08/09 02:28:27;;;;;;;13.67;6.17;;;;;;;14.43;85.91;100701.27;125581;1099;102076;-81
2023/08/09 02:30:59;;;;;;;13.40;6.10;;;;;;;14.39;86.30;100703.84;125573;1099;104188;-81
2023/08/09 02:33:30;;;;;;;11.50;5.70;;;;;;;14.37;86.06;100705.56;125515;1099;104189;-80
2023/08/09 02:36:03;;;;;;;12.83;5.90;;;;;;;14.36;86.29;100703.77;125564;1099;102319;-80
2023/08/09 02:38:35;;;;;;;16.20;6.30;;;;;;;14.34;87.75;100700.21;125559;1098;102005;-81
2023/08/09 02:41:06;;;;;;;11.40;5.80;;;;;;;14.32;87.26;100701.02;125458;1099;101817;-81
2023/08/09 02:43:38;;;;;;;13.93;5.90;;;;;;;14.30;86.89;100708.02;125495;1099;104086;-80
2023/08/09 02:46:10;;;;;;;12.77;6.13;;;;;;;14.29;87.47;100709.78;125533;1099;104207;-80
2023/08/09 02:48:41;;;;;;;12.53;5.93;;;;;;;14.29;86.79;100707.14;125477;1098;102434;-81
2023/08/09 02:51:12;;;;;;;10.70;5.57;;;;;;;14.33;87.21;100710.73;125572;1099;102229;-80
2023/08/09 02:54:01;;;;;;;12.83;5.73;;;;;;;14.33;86.98;100719.53;125565;1099;104386;-80
2023/08/09 02:56:33;;;;;;;10.90;5.87;;;;;;;14.35;87.63;100719.57;125728;1098;102239;-81
2023/08/09 02:59:05;;;;;;;14.07;6.30;;;;;;;14.34;88.09;100725.73;125376;1099;102089;-80
2023/08/09 03:01:36;;;;;;;11.17;5.73;;;;;;;14.32;87.67;100723.05;125625;1098;104198;-81
2023/08/09 03:04:08;;;;;;;12.33;5.97;;;;;;;14.34;87.38;100731.01;125114;1099;102519;-81
2023/08/09 03:06:40;;;;;;;17.23;6.60;;;;;;;14.35;87.11;100730.12;125468;1099;102038;-81
2023/08/09 03:09:11;;;;;;;13.17;6.10;;;;;;;14.35;86.63;100732.77;125520;1098;104201;-81
2023/08/09 03:11:43;;;;;;;11.13;6.33;;;;;;;14.36;86.18;100729.28;124867;1099;104179;-80
2023/08/09 03:14:14;;;;;;;11.70;5.40;;;;;;;14.35;86.19;100733.69;125219;1099;101960;-80
2023/08/09 03:16:46;;;;;;;14.03;6.30;;;;;;;14.35;86.29;100733.69;125534;1099;101942;-81
2023/08/09 03:19:17;;;;;;;11.60;6.00;;;;;;;14.35;87.23;100738.05;125023;1099;101979;-81
2023/08/09 03:21:52;;;;;;;10.40;5.77;;;;;;;14.35;86.91;100741.60;125002;1099;104120;-81
2023/08/09 03:24:24;;;;;;;11.70;5.63;;;;;;;14.35;86.77;100736.33;124962;1099;101935;-81
2023/08/09 03:26:55;;;;;;;12.17;6.10;;;;;;;14.38;86.54;100736.39;124895;1099;101833;-81
2023/08/09 03:29:28;;;;;;;12.67;6.63;;;;;;;14.43;86.66;100740.88;125287;1099;102327;-81
2023/08/09 03:32:00;;;;;;;11.88;5.95;;;;;;;14.46;86.43;100736.58;124907;1099;104192;-80
2023/08/09 03:34:31;;;;;;;10.33;5.70;;;;;;;14.54;86.42;100739.41;125581;1099;101972;-80
2023/08/09 03:37:03;;;;;;;8.30;4.97;;;;;;;14.56;86.57;100735.92;124973;1099;101875;-80
2023/08/09 03:39:34;;;;;;;11.07;5.33;;;;;;;14.58;86.31;100735.95;125496;1099;101886;-80
2023/08/09 03:42:06;;;;;;;13.63;5.90;;;;;;;14.60;86.87;100750.14;125176;1099;101954;-76
2023/08/09 03:44:37;;;;;;;9.17;5.60;;;;;;;14.63;86.16;100746.66;124641;1099;104393;-76
2023/08/09 03:47:09;;;;;;;9.63;5.47;;;;;;;14.64;85.91;100751.98;125181;1099;104239;-75
2023/08/09 03:49:40;;;;;;;10.03;5.50;;;;;;;14.69;86.97;100750.36;124729;1099;102550;-77
2023/08/09 03:52:12;;;;;;;9.13;5.50;;;;;;;14.70;86.65;100754.77;125284;1099;104272;-76
2023/08/09 03:54:43;;;;;;;12.07;5.93;;;;;;;14.73;86.82;100754.83;124811;1099;104181;-75
2023/08/09 03:57:15;;;;;;;12.90;6.70;;;;;;;14.78;86.31;100754.94;124765;1099;104198;-77
2023/08/09 03:59:46;;;;;;;11.20;6.37;;;;;;;14.81;86.00;100757.65;124906;1099;104255;-79
2023/08/09 04:02:18;;;;;;;11.07;5.63;;;;;;;14.84;86.85;100757.72;125323;1099;104169;-76
2023/08/09 04:04:50;;;;;;;10.73;5.57;;;;;;;14.87;86.12;100754.27;125098;1099;101948;-76
2023/08/09 04:07:21;;;;;;;9.93;5.97;;;;;;;14.92;86.05;100763.17;124738;1099;104168;-75
2023/08/09 04:09:53;;;;;;;16.40;6.33;;;;;;;14.95;87.03;100762.36;125068;1098;101871;-73
2023/08/09 04:12:24;;;;;;;13.30;6.20;;;;;;;15.00;86.89;100765.98;124919;1099;104242;-77
2023/08/09 04:14:55;;;;;;;12.90;5.90;;;;;;;15.04;85.98;100766.09;124614;1099;104313;-79
2023/08/09 04:17:26;;;;;;;13.33;5.80;;;;;;;15.09;86.22;100767.06;124522;1098;104262;-76
2023/08/09 04:19:58;;;;;;;8.57;5.20;;;;;;;15.16;86.56;100768.11;125088;1099;101963;-82
2023/08/09 04:22:29;;;;;;;12.90;5.80;;;;;;;15.20;86.21;100774.34;125190;1099;102428;-76
2023/08/09 04:25:00;;;;;;;10.57;5.63;;;;;;;15.22;86.57;100772.62;125211;1099;104182;-78
2023/08/09 04:27:33;;;;;;;14.13;5.77;;;;;;;15.26;86.89;100774.47;124827;1099;104297;-77
2023/08/09 04:30:05;;;;;;;11.23;5.90;;;;;;;15.32;85.78;100771.95;125317;1099;102374;-78
2023/08/09 04:32:37;;;;;;;11.87;5.60;;;;;;;15.38;86.32;100769.44;125190;1099;104301;-76
2023/08/09 04:35:09;;;;;;;10.93;5.87;;;;;;;15.43;85.85;100769.53;124750;1098;102456;-75
2023/08/09 04:37:41;;;;;;;10.73;5.60;;;;;;;15.49;85.69;100767.02;125086;1098;104160;-75
2023/08/09 04:40:13;;;;;;;11.53;5.50;;;;;;;15.54;85.71;100767.11;125270;1099;102169;-76
2023/08/09 04:42:47;;;;;;;12.15;5.50;;;;;;;15.58;85.64;100769.84;125313;1099;101951;-79
2023/08/09 04:45:19;;;;;;;16.90;6.27;;;;;;;15.65;85.64;100778.78;125268;1099;104216;-83
2023/08/09 04:47:52;;;;;;;12.07;5.30;;;;;;;15.69;85.80;100777.98;125641;1099;101906;-78
2023/08/09 04:50:23;;;;;;;11.00;5.27;;;;;;;15.73;86.33;100785.10;124801;1099;102183;-79
2023/08/09 04:52:55;;;;;;;11.90;6.00;;;;;;;15.81;86.02;100779.98;124812;1099;102073;-77
2023/08/09 04:55:26;;;;;;;12.63;5.27;;;;;;;15.86;85.99;100786.25;124842;1099;104096;-77
2023/08/09 04:57:58;;;;;;;11.33;5.17;;;;;;;15.92;85.66;100786.36;125333;1099;104169;-76
2023/08/09 05:00:29;;;;;;;11.63;5.23;;;;;;;16.01;85.87;100783.00;125257;1099;104373;-77
2023/08/09 05:03:04;;;;;;;9.50;4.83;;;;;;;16.05;85.45;100789.23;124837;1099;104239;-74
2023/08/09 05:05:36;;;;;;;11.87;5.23;;;;;;;16.09;85.56;100794.61;124812;1099;104297;-82
2023/08/09 05:08:08;;;;;;;11.07;5.43;;;;;;;16.12;85.88;100792.02;124805;1098;102022;-75
2023/08/09 05:10:40;;;;;;;10.63;5.53;;;;;;;16.15;85.78;100793.84;124678;1099;104356;-73
2023/08/09 05:13:11;;;;;;;12.43;5.40;;;;;;;16.21;85.28;100793.06;124818;1099;101872;-74
2023/08/09 05:15:43;;;;;;;14.83;5.00;;;;;;;16.26;85.31;100789.61;124975;1099;104191;-77
2023/08/09 05:18:14;;;;;;;13.07;5.00;;;;;;;16.30;85.22;100790.58;125097;1099;104166;-76
2023/08/09 05:20:46;;;;;;;12.67;5.40;;;;;;;16.37;85.40;100796.86;125254;1099;104221;-77
2023/08/09 05:23:18;;;;;;;8.50;4.97;;;;;;;16.44;84.92;100796.08;125064;1099;101969;-75
2023/08/09 05:25:53;;;;;;;9.73;5.27;;;;;;;16.53;84.83;100802.44;124730;1099;104351;-75
2023/08/09 05:28:28;;;;;;;10.03;4.93;;;;;;;16.62;85.68;100801.67;126033;1098;102322;-78
2023/08/09 05:31:28;;;;;;;11.40;4.90;;;;;;;16.75;84.91;100808.08;125112;1099;102028;-75
2023/08/09 05:34:01;;;;;;;10.10;4.63;;;;;;;16.85;85.02;100807.33;126379;1099;101826;-77
2023/08/09 05:36:33;;;;;;;;;;;;;;;16.92;84.89;100810.98;125288;1099;102424;-77
2023/08/09 05:39:08;;;;;;;10.70;4.50;;;;;;;17.00;84.65;100812.02;124831;1099;102006;-79
2023/08/09 05:41:41;;;;;;;9.17;4.80;;;;;;;17.10;84.63;100806.84;127579;1098;101617;-77
2023/08/09 05:44:12;;;;;;;10.97;4.83;;;;;;;17.18;84.32;100807.83;126837;1098;104169;-80
2023/08/09 05:46:44;;;;;;;6.43;4.10;;;;;;;17.25;84.00;100807.93;126031;1099;101797;-83
2023/08/09 05:49:22;;;;;;;9.27;4.40;;;;;;;17.33;83.84;100810.69;126469;1098;102211;-83
2023/08/09 05:52:03;;;;;;;7.93;4.50;;;;;;;17.42;83.69;100815.19;126949;1090;102802;-81
2023/08/09 05:54:40;;;;;;;7.27;4.33;;;;;;;17.51;82.93;100822.39;126776;1098;102170;-81
2023/08/09 05:57:21;;;;;;;9.60;3.87;;;;;;;17.61;82.83;100816.34;126275;1098;102088;-78
2023/08/09 05:59:53;;;;;;;5.33;3.63;;;;;;;17.65;82.21;100806.64;125214;1099;104195;-79
2023/08/09 06:02:26;;;;;;;8.60;4.10;;;;;;;17.79;82.29;100805.94;125793;1098;101922;-79
2023/08/09 06:05:06;;;;;;;7.70;4.10;;;;;;;17.91;82.09;100809.63;125496;1099;104166;-81
2023/08/09 06:07:41;;;;;;;7.37;3.97;;;;;;;18.00;82.32;100811.46;125311;1099;102108;-80
2023/08/09 06:17:23;;;;;;;8.40;4.27;;;;;;;18.37;81.44;100817.13;124812;1102;104277;-74
2023/08/09 06:19:56;;;;;;;10.58;4.53;;;;;;;18.43;81.73;100801.23;125104;1099;104178;-77
2023/08/09 06:22:30;;;;;;;10.00;4.87;;;;;;;18.50;80.49;100811.93;126805;1098;101832;-78
2023/08/09 06:25:19;;;;;;;6.53;3.80;;;;;;;18.58;81.35;100816.43;127571;1098;101756;-78
2023/08/09 06:28:06;;;;;;;9.67;4.47;;;;;;;18.66;81.28;100817.38;127555;1098;101758;-75
2023/08/09 06:34:02;;;;;;;8.70;4.47;;;;;;;18.91;80.71;100822.91;126538;1099;101916;-76
2023/08/09 06:37:06;;;;;;;8.80;4.30;;;;;;;19.04;80.59;100815.02;127222;1098;101736;-79
2023/08/09 06:39:44;;;;;;;10.53;4.03;;;;;;;19.17;79.94;100812.42;126665;1098;110268;-76
2023/08/09 06:42:16;;;;;;;9.17;4.20;;;;;;;19.26;78.70;100807.16;127293;1098;101898;-77
2023/08/09 06:44:51;;;;;;;11.40;4.12;;;;;;;19.38;79.06;100808.96;125615;1099;102328;-75
2023/08/09 06:47:26;;;;;;;6.27;4.17;;;;;;;19.48;79.09;100816.11;126277;1098;104024;-76
2023/08/09 06:50:00;;;;;;;10.45;4.87;;;;;;;19.56;78.88;100813.48;125267;1099;104248;-78
2023/08/09 06:52:42;;;;;;;11.90;4.17;;;;;;;19.67;78.51;100809.08;126635;1099;101799;-77
2023/08/09 06:55:16;;;;;;;8.03;3.93;;;;;;;19.77;78.87;100796.70;127043;1098;101769;-76
2023/08/09 06:58:27;;;;;;;7.23;4.00;;;;;;;19.89;78.35;100802.06;127282;1098;102134;-78
2023/08/09 07:01:19;;;;;;;6.40;3.30;;;;;;;20.05;77.45;100805.63;127445;1098;102107;-77
2023/08/09 07:04:05;;;;;;;7.13;3.50;;;;;;;20.29;77.37;100811.91;126528;1098;104172;-78
2023/08/09 07:06:40;;;;;;;7.43;3.40;;;;;;;20.46;75.88;100810.13;126689;1098;104166;-76
2023/08/09 07:09:43;;;;;;;8.47;3.60;;;;;;;20.70;75.32;100812.81;126223;1098;102052;-79
2023/08/09 07:12:20;;;;;;;7.10;3.60;;;;;;;20.89;75.38;100811.00;126063;1102;101911;-77
2023/08/09 07:15:07;;;;;;;6.15;3.25;;;;;;;21.01;75.55;100811.86;125997;1101;102039;-79
2023/08/09 07:17:46;;;;;;;4.97;3.27;;;;;;;21.21;74.41;100810.02;126130;1102;101719;-82
2023/08/09 07:20:21;;;;;;;7.40;3.40;;;;;;;21.45;71.88;100804.59;125578;1102;104092;-79
2023/08/09 07:23:08;;;;;;;5.30;3.10;;;;;;;21.73;71.51;100812.52;125654;1099;101846;-78
2023/08/09 07:26:11;;;;;;;6.37;3.10;;;;;;;21.94;71.92;100805.27;126714;1099;104350;-79
2023/08/09 07:29:14;;;;;;;4.17;3.00;;;;;;;22.10;71.17;100803.41;126217;1098;102036;-79
2023/08/09 07:37:42;;;;;;;5.43;3.00;;;;;;;22.92;66.43;100790.20;126426;1098;101733;-80
2023/08/09 07:40:18;;;;;;;4.73;3.10;;;;;;;23.06;67.01;100796.31;125531;1099;102418;-81
2023/08/09 07:43:04;;;;;;;8.30;3.20;;;;;;;23.18;66.37;100797.98;126420;1098;102357;-81
2023/08/09 07:45:45;;;;;;;5.93;3.03;;;;;;;23.47;64.20;100799.44;126295;1099;101918;-83
2023/08/09 07:48:22;;;;;;;6.40;2.90;;;;;;;23.79;61.97;100788.25;125519;1099;104175;-80
2023/08/09 07:51:03;;;;;;;7.20;2.90;;;;;;;23.93;62.01;100790.77;125991;1099;104239;-83
2023/08/09 07:53:35;;;;;;;8.07;3.40;;;;;;;23.94;62.27;100791.67;126809;1097;102842;-78
2023/08/09 07:56:20;;;;;;;13.98;3.12;;;;;;;23.95;62.38;100790.74;125328;1099;104225;-80
2023/08/09 07:58:53;;;;;;;6.30;2.60;;;;;;;24.03;59.85;100779.01;124677;1099;104309;-78
2023/08/09 08:01:26;;;;;;;3.03;2.43;;;;;;;24.25;58.93;100784.03;124591;1099;110743;-79
2023/08/09 08:04:00;;;;;;;7.40;2.60;;;;;;;24.38;57.71;100790.94;125375;1099;104190;-81
2023/08/09 08:06:41;;;;;;;3.87;2.50;;;;;;;24.47;58.15;100789.04;125600;1099;101946;-82
2023/08/09 08:09:21;;;;;;;6.07;3.10;;;;;;;24.52;58.52;100785.34;126611;1098;104669;-78
2023/08/09 08:12:13;;;;;;;6.83;2.97;;;;;;;24.55;58.81;100781.73;125655;1099;102179;-78
2023/08/09 08:14:46;;;;;;;4.13;2.90;;;;;;;24.68;51.55;100790.47;127268;1098;102171;-80
2023/08/09 08:17:32;;;;;;;2.87;2.30;;;;;;;24.85;56.17;100792.85;126069;1099;104162;-81
2023/08/09 08:20:41;;;;;;;7.00;2.83;;;;;;;24.97;53.76;100784.56;125352;1099;104418;-80
2023/08/09 08:23:17;;;;;;;4.15;2.55;;;;;;;24.98;54.56;100785.44;126720;1099;101881;-80
2023/08/09 08:25:51;;;;;;;;;;;;;;;25.03;48.79;100789.81;126012;1098;104197;-79
2023/08/09 08:28:24;;;;;;;4.35;3.00;;;;;;;25.15;52.57;100785.11;126461;1098;101801;-81
2023/08/09 08:30:59;;;;;;;4.40;2.75;;;;;;;25.26;51.50;100788.48;125551;1099;101824;-83
2023/08/09 08:33:45;;;;;;;3.73;2.47;;;;;;;25.27;52.10;100779.48;125615;1099;104166;-82
2023/08/09 08:36:30;;;;;;;4.73;3.00;;;;;;;25.16;52.75;100786.89;126108;1099;104316;-83
2023/08/09 08:39:14;;;;;;;4.17;2.50;;;;;;;25.08;52.96;100782.55;127237;1098;104232;-83
2023/08/09 08:41:59;;;;;;;8.23;2.83;;;;;;;25.24;53.16;100779.55;126740;1098;104194;-80
2023/08/09 08:44:38;;;;;;;2.90;2.47;;;;;;;25.32;50.84;100772.25;126111;1099;102003;-80
2023/08/09 08:47:11;;;;;;;5.70;2.77;;;;;;;25.37;51.94;100761.41;125512;1099;104293;-81
2023/08/09 08:49:57;;;;;;;5.03;2.80;;;;;;;25.48;51.48;100771.02;126728;1098;104069;-80
2023/08/09 08:52:45;;;;;;;4.20;2.70;;;;;;;25.59;50.45;100783.34;126050;1099;102292;-80
2023/08/09 08:55:23;;;;;;;2.97;2.60;;;;;;;25.63;50.72;100774.27;125598;1099;101729;-81
2023/08/09 08:58:15;;;;;;;5.83;2.80;;;;;;;25.67;51.55;100775.98;126797;1098;101774;-79
2023/08/09 09:00:55;;;;;;;2.50;2.30;;;;;;;25.65;48.82;100777.83;126408;1098;101978;-82
2023/08/09 09:03:29;;;;;;;3.40;2.40;;;;;;;25.44;47.02;100773.80;126046;1099;104325;-83
2023/08/09 09:06:10;;;;;;;3.13;2.23;;;;;;;25.29;46.99;100775.00;126013;1099;102061;-81
2023/08/09 09:08:47;;;;;;;7.55;2.58;;;;;;;25.09;47.06;100773.59;125959;1099;104162;-78
2023/08/09 09:11:21;;;;;;;5.37;2.50;;;;;;;25.02;47.56;100773.73;125084;1099;104175;-80
2023/08/09 09:14:02;;;;;;;5.03;2.50;;;;;;;25.05;47.72;100771.00;124695;1099;101900;-77
2023/08/09 09:16:38;;;;;;;5.87;2.40;;;;;;;25.04;47.65;100769.22;124627;1099;104255;-77
2023/08/09 09:19:13;;;;;;;3.50;2.30;;;;;;;25.11;46.85;100762.81;124422;1099;104335;-78
2023/08/09 09:21:48;;;;;;;5.60;2.50;;;;;;;25.19;47.16;100765.34;125388;1099;104354;-80
2023/08/09 09:24:27;;;;;;;3.97;2.70;;;;;;;25.38;47.42;100760.50;125388;1099;104225;-80
2023/08/09 09:27:04;;;;;;;4.42;2.65;;;;;;;25.46;46.18;100748.68;125212;1099;104236;-79
2023/08/09 09:29:46;;;;;;;4.47;2.63;;;;;;;25.72;46.38;100763.31;125388;1099;104253;-79
2023/08/09 09:32:40;;;;;;;6.55;2.40;;;;;;;25.95;46.17;100756.53;126148;1099;104118;-81
2023/08/09 09:35:23;;;;;;;4.70;2.60;;;;;;;26.16;46.63;100758.73;126324;1099;101788;-83
2023/08/09 09:38:04;;;;;;;3.03;1.93;;;;;;;26.23;46.29;100750.52;127032;1098;102087;-82
2023/08/09 09:40:43;;;;;;;2.33;2.03;;;;;;;26.17;46.12;100748.84;126810;1098;104165;-81
2023/08/09 09:43:21;;;;;;;3.93;2.30;;;;;;;26.13;45.06;100749.83;126505;1098;101820;-83
2023/08/09 09:46:17;;;;;;;5.03;2.10;;;;;;;26.07;45.01;100734.76;124830;1099;104214;-81
2023/08/09 09:49:14;;;;;;;;;;;;;;;;;;;;;
2023/08/09 09:52:10;;;;;;;4.90;2.37;;;;;;;25.80;45.02;100737.17;125564;1102;104307;-80
2023/08/09 09:55:03;;;;;;;;;;;;;;;;;;;;;
2023/08/09 09:57:39;;;;;;;5.23;2.73;;;;;;;25.54;44.88;100727.02;126521;1099;101840;-80
2023/08/09 10:00:31;;;;;;;6.43;2.40;;;;;;;25.55;45.19;100728.77;125630;1099;101979;-84
2023/08/09 10:03:49;;;;;;;2.70;1.90;;;;;;;25.69;44.91;100717.70;126241;1099;101618;-85
2023/08/09 10:06:56;;;;;;;2.98;2.20;;;;;;;25.96;45.06;100724.23;127283;1098;104105;-83
2023/08/09 10:09:34;;;;;;;3.80;2.30;;;;;;;26.12;44.22;100718.51;125857;1099;102140;-79
2023/08/09 10:12:19;;;;;;;2.50;2.07;;;;;;;26.18;42.30;100721.91;125544;1098;104224;-82
2023/08/09 10:14:51;;;;;;;4.12;2.20;;;;;;;26.27;43.04;100718.12;126775;1098;102054;-82
2023/08/09 10:17:30;;;;;;;2.50;2.20;;;;;;;26.37;42.64;100713.38;126791;1098;101777;-82
2023/08/09 10:20:06;;;;;;;3.57;2.27;;;;;;;26.48;42.14;100711.27;126107;1099;101874;-82
2023/08/09 10:22:46;;;;;;;2.50;2.07;;;;;;;26.58;42.10;100706.52;126546;1098;102015;-84
2023/08/09 10:25:49;;;;;;;2.53;2.30;;;;;;;26.71;42.02;100707.11;126804;1097;102210;-81
2023/08/09 10:28:48;;;;;;;2.23;2.00;;;;;;;26.81;42.01;100705.91;127696;1098;101156;-87
2023/08/09 10:31:53;;;;;;;4.33;2.17;;;;;;;27.02;41.75;100707.11;127421;1098;101673;-83
2023/08/09 10:34:40;;;;;;;5.87;1.97;;;;;;;27.11;42.05;100699.67;126015;1099;102629;-82
2023/08/09 10:37:29;;;;;;;2.60;2.00;;;;;;;27.02;40.93;100701.73;126071;1099;104232;-83
2023/08/09 10:40:26;;;;;;;3.83;2.52;;;;;;;26.88;41.12;100699.43;125680;1099;102294;-83
2023/08/09 10:43:21;;;;;;;4.30;2.50;;;;;;;26.84;41.60;100699.56;126428;1098;101958;-84
2023/08/09 10:45:59;;;;;;;6.63;2.53;;;;;;;26.80;41.40;100690.70;126239;1099;101645;-85
2023/08/09 10:48:54;;;;;;;3.93;2.20;;;;;;;26.76;40.63;100689.02;126392;1098;101788;-85
2023/08/09 10:51:35;;;;;;;4.83;2.10;;;;;;;26.83;40.64;100684.33;125678;1099;104181;-86
2023/08/09 10:54:19;;;;;;;4.73;1.83;;;;;;;26.89;40.89;100686.84;126202;1099;104175;-84
2023/08/09 10:56:51;;;;;;;3.53;1.83;;;;;;;26.85;39.96;100685.19;127248;1098;102040;-86
2023/08/09 10:59:28;;;;;;;2.58;2.20;;;;;;;26.88;39.67;100683.28;127158;1098;102022;-85
2023/08/09 11:02:06;;;;;;;4.87;2.33;;;;;;;26.89;39.99;100663.48;126804;1098;101750;-82
2023/08/09 11:04:47;;;;;;;4.57;2.20;;;;;;;26.95;39.51;100664.25;126113;1099;102163;-83
2023/08/09 11:07:27;;;;;;;2.80;1.80;;;;;;;26.93;38.54;100664.30;127378;1098;103344;-84
2023/08/09 11:10:13;;;;;;;4.40;2.03;;;;;;;27.07;39.17;100669.27;125548;1099;104340;-79
2023/08/09 11:12:46;;;;;;;5.03;2.30;;;;;;;27.15;38.77;100667.22;125601;1099;104236;-81
2023/08/09 11:15:25;;;;;;;2.67;1.77;;;;;;;27.24;39.49;100668.77;126157;1099;104223;-82
2023/08/09 11:21:18;;;;;;;3.70;2.07;;;;;;;27.45;37.96;100661.83;126340;1098;104053;-80
2023/08/09 11:24:12;;;;;;;4.60;1.97;;;;;;;27.33;36.88;100656.83;125257;1102;104207;-79
2023/08/09 11:27:07;;;;;;;1.95;1.70;;;;;;;27.46;38.13;100652.83;126071;1102;101845;-83
2023/08/09 11:30:03;;;;;;;2.07;1.70;;;;;;;27.52;37.19;100649.94;125403;1102;102122;-81
2023/08/09 11:32:38;;;;;;;3.53;1.77;;;;;;;27.65;36.96;100652.23;124540;1099;104300;-80
2023/08/09 11:35:16;;;;;;;3.15;1.95;;;;;;;27.67;36.78;100643.15;125313;1099;101872;-80
2023/08/09 11:37:55;;;;;;;4.03;2.00;;;;;;;27.86;37.25;100639.84;126329;1098;101886;-80
2023/08/09 11:40:48;;;;;;;2.00;1.70;;;;;;;28.10;37.32;100643.55;125840;1099;104319;-83
2023/08/09 11:43:36;;;;;;;5.13;1.90;;;;;;;28.07;37.12;100633.74;125957;1099;101815;-83
2023/08/09 11:46:15;;;;;;;5.03;2.77;;;;;;;28.17;36.98;100631.59;126847;1098;118028;-81
2023/08/09 11:49:02;;;;;;;2.97;2.10;;;;;;;28.43;37.21;100629.78;125869;1102;102259;-80
2023/08/09 11:51:55;;;;;;;3.33;1.80;;;;;;;28.69;36.70;100624.33;126092;1099;101781;-85
2023/08/09 11:54:57;;;;;;;3.43;1.73;;;;;;;28.93;37.15;100632.42;126240;1099;104102;-80
2023/08/09 11:57:34;;;;;;;3.70;1.87;;;;;;;28.87;35.85;100632.66;125668;1099;101751;-77
2023/08/09 12:00:16;;;;;;;5.20;1.93;;;;;;;28.69;35.17;100628.86;125274;1102;104201;-80
2023/08/09 12:02:55;;;;;;;2.47;1.83;;;;;;;28.65;35.38;100625.38;125469;1099;104194;-80
2023/08/09 12:05:44;;;;;;;2.47;1.83;;;;;;;28.53;34.76;100628.49;125531;1100;104172;-81
2023/08/09 12:08:32;;;;;;;2.40;2.17;;;;;;;28.47;35.22;100631.41;127280;1098;101559;-81
2023/08/09 12:11:26;;;;;;;4.13;1.63;;;;;;;28.31;34.41;100629.31;125398;1099;104201;-82
2023/08/09 12:14:00;;;;;;;5.20;1.87;;;;;;;28.17;35.08;100626.20;125458;1099;104220;-81
2023/08/09 12:16:48;;;;;;;2.97;1.57;;;;;;;28.04;34.93;100628.45;125722;1099;101928;-89